| time (UTC) | temp F | wind direction | speed knots | gust knots | rain 1hr in | rain 24hr in | rain mn in | humidity % | barometer mb |
| 20260508125631 | 72 | 204 | 0.0 | 2.6 | 0.00 | 0.00 | 0.00 | 30 | 1014.2 |
| 20260508125128 | 72 | 81 | 0.9 | 1.7 | 0.00 | 0.00 | 0.00 | 31 | 1014.1 |
| 20260508124626 | 73 | 148 | 0.9 | 1.7 | 0.00 | 0.00 | 0.00 | 30 | 1014.2 |
| 20260508124123 | 73 | 118 | 1.7 | 2.6 | 0.00 | 0.00 | 0.00 | 30 | 1013.9 |
| 20260508123621 | 74 | 79 | 0.9 | 1.7 | 0.00 | 0.00 | 0.00 | 30 | 1013.9 |
| 20260508123118 | 75 | 234 | 0.9 | 1.7 | 0.00 | 0.00 | 0.00 | 30 | 1013.9 |
| 20260508122614 | 75 | 199 | 0.0 | 1.7 | 0.00 | 0.00 | 0.00 | 29 | 1013.9 |
| 20260508122112 | 74 | 268 | 0.0 | 1.7 | 0.00 | 0.00 | 0.00 | 30 | 1013.7 |
| 20260508121610 | 74 | 174 | 1.7 | 1.7 | 0.00 | 0.00 | 0.00 | 30 | 1014.0 |
| 20260508121108 | 74 | 221 | 1.7 | 3.5 | 0.00 | 0.00 | 0.00 | 30 | 1013.9 |
| 20260508120605 | 75 | 345 | 0.9 | 2.6 | 0.00 | 0.00 | 0.00 | 28 | 1014.0 |
| 20260508120104 | 77 | 333 | 1.7 | 1.7 | 0.00 | 0.00 | 0.00 | 28 | 1013.9 |
| 20260508115601 | 77 | 69 | 0.0 | 0.9 | 0.00 | 0.00 | 0.00 | 28 | 1013.7 |
| 20260508115057 | 77 | 289 | 1.7 | 2.6 | 0.00 | 0.00 | 0.00 | 27 | 1013.8 |
| 20260508114554 | 79 | 27 | 4.3 | 4.3 | 0.00 | 0.00 | 0.00 | 26 | 1013.9 |
| 20260508114050 | 77 | 111 | 2.6 | 4.3 | 0.00 | 0.00 | 0.00 | 27 | 1013.7 |
| 20260508113548 | 75 | 291 | 1.7 | 1.7 | 0.00 | 0.00 | 0.00 | 28 | 1013.8 |
| 20260508113046 | 73 | 205 | 0.0 | 2.6 | 0.00 | 0.00 | 0.00 | 30 | 1013.7 |
| 20260508112542 | 74 | 15 | 1.7 | 1.7 | 0.00 | 0.00 | 0.00 | 32 | 1013.7 |
| 20260508112039 | 75 | 221 | 0.9 | 1.7 | 0.00 | 0.00 | 0.00 | 29 | 1013.7 |
| 20260508111536 | 75 | 324 | 1.7 | 1.7 | 0.00 | 0.00 | 0.00 | 29 | 1014.0 |
| 20260508111033 | 74 | 178 | 1.7 | 2.6 | 0.00 | 0.00 | 0.00 | 29 | 1013.8 |
| 20260508110531 | 76 | 353 | 0.0 | 1.7 | 0.00 | 0.00 | 0.00 | 28 | 1013.7 |
| 20260508110027 | 77 | 342 | 1.7 | 1.7 | 0.00 | 0.00 | 0.00 | 28 | 1013.6 |
| 20260508105522 | 78 | 16 | 1.7 | 3.5 | 0.00 | 0.00 | 0.00 | 27 | 1013.6 |
| 20260508105019 | 76 | 142 | 2.6 | 3.5 | 0.00 | 0.00 | 0.00 | 27 | 1013.6 |
| 20260508104517 | 76 | 39 | 1.7 | 1.7 | 0.00 | 0.00 | 0.00 | 28 | 1013.7 |
| 20260508104013 | 77 | 345 | 0.9 | 1.7 | 0.00 | 0.00 | 0.00 | 27 | 1013.6 |
| 20260508103510 | 78 | 246 | 0.0 | 2.6 | 0.00 | 0.00 | 0.00 | 26 | 1013.6 |
| 20260508103008 | 76 | 320 | 0.0 | 1.7 | 0.00 | 0.00 | 0.00 | 28 | 1013.7 |
| 20260508102505 | 78 | 62 | 1.7 | 2.6 | 0.00 | 0.00 | 0.00 | 27 | 1013.5 |
| 20260508102002 | 77 | 109 | 0.9 | 1.7 | 0.00 | 0.00 | 0.00 | 27 | 1013.9 |
| 20260508101500 | 77 | 103 | 0.0 | 1.7 | 0.00 | 0.00 | 0.00 | 27 | 1013.7 |
| 20260508100957 | 77 | 73 | 0.0 | 1.7 | 0.00 | 0.00 | 0.00 | 27 | 1013.9 |
| 20260508100455 | 77 | 343 | 0.0 | 2.6 | 0.00 | 0.00 | 0.00 | 27 | 1013.9 |
| 20260508095951 | 78 | 237 | 0.0 | 1.7 | 0.00 | 0.00 | 0.00 | 26 | 1013.7 |
| 20260508095449 | 77 | 129 | 0.9 | 2.6 | 0.00 | 0.00 | 0.00 | 27 | 1013.9 |
| 20260508094946 | 77 | 291 | 1.7 | 5.2 | 0.00 | 0.00 | 0.00 | 26 | 1013.8 |
| 20260508094442 | 78 | 92 | 2.6 | 3.5 | 0.00 | 0.00 | 0.00 | 26 | 1013.7 |
| 20260508093939 | 79 | 89 | 0.9 | 1.7 | 0.00 | 0.00 | 0.00 | 26 | 1013.9 |
| 20260508093437 | 80 | 121 | 0.9 | 1.7 | 0.00 | 0.00 | 0.00 | 25 | 1013.9 |
| 20260508092934 | 79 | 19 | 0.9 | 2.6 | 0.00 | 0.00 | 0.00 | 25 | 1014.0 |
| 20260508092432 | 79 | 268 | 1.7 | 3.5 | 0.00 | 0.00 | 0.00 | 25 | 1013.9 |
| 20260508091930 | 78 | 171 | 0.9 | 2.6 | 0.00 | 0.00 | 0.00 | 26 | 1014.0 |
| 20260508091426 | 78 | 141 | 1.7 | 2.6 | 0.00 | 0.00 | 0.00 | 26 | 1014.0 |
| 20260508090923 | 80 | 210 | 0.0 | 0.9 | 0.00 | 0.00 | 0.00 | 25 | 1013.9 |
| 20260508090422 | 81 | 89 | 2.6 | 4.3 | 0.00 | 0.00 | 0.00 | 24 | 1014.0 |
| 20260508085917 | 82 | 243 | 0.0 | 3.5 | 0.00 | 0.00 | 0.00 | 23 | 1013.9 |
| 20260508085414 | 81 | 98 | 3.5 | 4.3 | 0.00 | 0.00 | 0.00 | 23 | 1013.8 |
| 20260508084911 | 79 | 353 | 2.6 | 3.5 | 0.00 | 0.00 | 0.00 | 24 | 1014.0 |
| 20260508084408 | 80 | 128 | 0.9 | 3.5 | 0.00 | 0.00 | 0.00 | 24 | 1014.0 |
| 20260508083906 | 78 | 230 | 2.6 | 2.6 | 0.00 | 0.00 | 0.00 | 24 | 1014.1 |
| 20260508083403 | 79 | 324 | 0.0 | 0.9 | 0.00 | 0.00 | 0.00 | 24 | 1014.3 |
| 20260508082903 | 78 | 174 | 0.0 | 1.7 | 0.00 | 0.00 | 0.00 | 24 | 1014.3 |
| 20260508082401 | 79 | 264 | 1.7 | 3.5 | 0.00 | 0.00 | 0.00 | 24 | 1014.3 |
| 20260508081858 | 80 | 226 | 1.7 | 2.6 | 0.00 | 0.00 | 0.00 | 24 | 1014.3 |
| 20260508081355 | 80 | 141 | 1.7 | 4.3 | 0.00 | 0.00 | 0.00 | 24 | 1014.5 |
| 20260508080851 | 80 | 271 | 0.9 | 3.5 | 0.00 | 0.00 | 0.00 | 24 | 1014.6 |
| 20260508080350 | 80 | 313 | 2.6 | 3.5 | 0.00 | 0.00 | 0.00 | 24 | 1014.5 |
| 20260508075846 | 80 | 161 | 1.7 | 3.5 | 0.00 | 0.00 | 0.00 | 24 | 1014.5 |
| 20260508075343 | 80 | 72 | 1.7 | 3.5 | 0.00 | 0.00 | 0.00 | 24 | 1014.6 |
| 20260508074840 | 80 | 60 | 0.0 | 0.9 | 0.00 | 0.00 | 0.00 | 24 | 1014.5 |
| 20260508074337 | 81 | 273 | 0.9 | 2.6 | 0.00 | 0.00 | 0.00 | 23 | 1014.7 |
| 20260508073834 | 81 | 154 | 2.6 | 3.5 | 0.00 | 0.00 | 0.00 | 23 | 1014.6 |
| 20260508073332 | 82 | 77 | 1.7 | 3.5 | 0.00 | 0.00 | 0.00 | 22 | 1014.6 |
| 20260508072828 | 82 | 229 | 2.6 | 4.3 | 0.00 | 0.00 | 0.00 | 22 | 1014.6 |
| 20260508072325 | 83 | 232 | 5.2 | 7.8 | 0.00 | 0.00 | 0.00 | 22 | 1014.7 |
| 20260508071822 | 83 | 112 | 2.6 | 3.5 | 0.00 | 0.00 | 0.00 | 21 | 1014.6 |
| 20260508071320 | 83 | 323 | 2.6 | 6.1 | 0.00 | 0.00 | 0.00 | 21 | 1014.7 |
| 20260508070817 | 82 | 84 | 6.1 | 7.0 | 0.00 | 0.00 | 0.00 | 22 | 1014.5 |
| 20260508070316 | 84 | 275 | 0.0 | 1.7 | 0.00 | 0.00 | 0.00 | 21 | 1014.5 |
| 20260508065813 | 83 | 323 | 3.5 | 4.3 | 0.00 | 0.00 | 0.00 | 22 | 1014.9 |
| 20260508065311 | 84 | 280 | 1.7 | 7.8 | 0.00 | 0.00 | 0.00 | 21 | 1014.7 |
| 20260508064809 | 86 | 234 | 0.0 | 2.6 | 0.00 | 0.00 | 0.00 | 20 | 1014.6 |
| 20260508064306 | 88 | 259 | 5.2 | 10.4 | 0.00 | 0.00 | 0.00 | 19 | 1014.3 |
| 20260508063803 | 87 | 325 | 5.2 | 7.0 | 0.00 | 0.00 | 0.00 | 18 | 1014.6 |
| 20260508063301 | 85 | 109 | 9.6 | 13.0 | 0.00 | 0.00 | 0.00 | 19 | 1014.7 |
| 20260508062758 | 86 | 194 | 2.6 | 6.1 | 0.00 | 0.00 | 0.00 | 20 | 1014.4 |
| 20260508062256 | 89 | 282 | 6.1 | 12.2 | 0.00 | 0.00 | 0.00 | 17 | 1014.1 |
| 20260508061752 | 88 | 235 | 9.6 | 13.9 | 0.00 | 0.00 | 0.00 | 18 | 1014.5 |
| 20260508061249 | 89 | 94 | 6.1 | 18.2 | 0.00 | 0.00 | 0.00 | 17 | 1014.6 |
| 20260508060746 | 89 | 327 | 5.2 | 13.9 | 0.00 | 0.00 | 0.00 | 17 | 1014.4 |
| 20260508060244 | 87 | 309 | 7.8 | 14.8 | 0.00 | 0.00 | 0.00 | 18 | 1014.6 |
| 20260508055739 | 90 | 289 | 7.8 | 19.1 | 0.00 | 0.00 | 0.00 | 16 | 1014.3 |
| 20260508055236 | 89 | 247 | 9.6 | 14.8 | 0.00 | 0.00 | 0.00 | 16 | 1014.4 |
| 20260508054733 | 89 | 328 | 9.6 | 13.0 | 0.00 | 0.00 | 0.00 | 16 | 1014.4 |
| 20260508054226 | 88 | 230 | 7.0 | 16.5 | 0.00 | 0.00 | 0.00 | 20 | 1014.7 |
| 20260508053722 | 90 | 237 | 5.2 | 17.4 | 0.00 | 0.00 | 0.00 | 17 | 1014.5 |
| 20260508053220 | 90 | 252 | 9.6 | 13.0 | 0.00 | 0.00 | 0.00 | 16 | 1014.6 |
| 20260508052717 | 89 | 303 | 7.8 | 9.6 | 0.00 | 0.00 | 0.00 | 16 | 1014.3 |
| 20260508052213 | 89 | 266 | 7.0 | 11.3 | 0.00 | 0.00 | 0.00 | 16 | 1014.6 |
| 20260508051710 | 90 | 179 | 7.0 | 17.4 | 0.00 | 0.00 | 0.00 | 19 | 1014.6 |
| 20260508051205 | 89 | 269 | 6.1 | 14.8 | 0.00 | 0.00 | 0.00 | 16 | 1014.6 |
| 20260508050702 | 89 | 230 | 15.6 | 20.0 | 0.00 | 0.00 | 0.00 | 17 | 1014.5 |
| 20260508050200 | 89 | 226 | 20.9 | 25.2 | 0.00 | 0.00 | 0.00 | 17 | 1014.3 |
| 20260508045700 | 89 | 249 | 7.8 | 14.8 | 0.00 | 0.00 | 0.00 | 16 | 1014.6 |
| 20260508045158 | 90 | 276 | 4.3 | 19.1 | 0.00 | 0.00 | 0.00 | 16 | 1014.5 |
| 20260508044655 | 89 | 251 | 12.2 | 13.9 | 0.00 | 0.00 | 0.00 | 17 | 1014.5 |
| 20260508044151 | 90 | 273 | 10.4 | 21.7 | 0.00 | 0.00 | 0.00 | 17 | 1014.4 |
| 20260508043647 | 89 | 273 | 7.8 | 15.6 | 0.00 | 0.00 | 0.00 | 17 | 1014.2 |
| 20260508043146 | 89 | 256 | 11.3 | 17.4 | 0.00 | 0.00 | 0.00 | 17 | 1014.5 |
| 20260508042642 | 89 | 236 | 19.1 | 20.0 | 0.00 | 0.00 | 0.00 | 16 | 1014.3 |
| 20260508042139 | 89 | 247 | 14.8 | 16.5 | 0.00 | 0.00 | 0.00 | 17 | 1014.5 |
| 20260508041635 | 89 | 244 | 11.3 | 21.7 | 0.00 | 0.00 | 0.00 | 18 | 1014.3 |
| 20260508041132 | 89 | 292 | 6.1 | 15.6 | 0.00 | 0.00 | 0.00 | 19 | 1014.1 |
| 20260508040629 | 89 | 265 | 12.2 | 16.5 | 0.00 | 0.00 | 0.00 | 17 | 1014.0 |
| 20260508040127 | 89 | 297 | 9.6 | 17.4 | 0.00 | 0.00 | 0.00 | 18 | 1013.9 |
| 20260508035624 | 89 | 287 | 7.0 | 20.0 | 0.00 | 0.00 | 0.00 | 19 | 1013.7 |
| 20260508035121 | 89 | 275 | 7.0 | 17.4 | 0.00 | 0.00 | 0.00 | 19 | 1013.7 |
| 20260508034618 | 89 | 301 | 13.9 | 16.5 | 0.00 | 0.00 | 0.00 | 20 | 1013.7 |
| 20260508034115 | 89 | 253 | 10.4 | 19.1 | 0.00 | 0.00 | 0.00 | 21 | 1013.6 |
| 20260508033612 | 89 | 298 | 10.4 | 17.4 | 0.00 | 0.00 | 0.00 | 22 | 1013.6 |
| 20260508033110 | 89 | 240 | 12.2 | 17.4 | 0.00 | 0.00 | 0.00 | 23 | 1013.3 |
| 20260508032606 | 88 | 314 | 18.2 | 23.5 | 0.00 | 0.00 | 0.00 | 24 | 1013.3 |
| 20260508032104 | 88 | 287 | 9.6 | 19.1 | 0.00 | 0.00 | 0.00 | 26 | 1013.1 |
| 20260508031601 | 88 | 299 | 13.0 | 22.6 | 0.00 | 0.00 | 0.00 | 26 | 1013.2 |
| 20260508031057 | 88 | 288 | 6.1 | 16.5 | 0.00 | 0.00 | 0.00 | 25 | 1013.2 |
| 20260508030553 | 88 | 283 | 9.6 | 19.1 | 0.00 | 0.00 | 0.00 | 26 | 1013.1 |
| 20260508030052 | 89 | 295 | 10.4 | 17.4 | 0.00 | 0.00 | 0.00 | 26 | 1012.9 |
| 20260508025547 | 89 | 293 | 16.5 | 22.6 | 0.00 | 0.00 | 0.00 | 27 | 1012.9 |
| 20260508025045 | 89 | 277 | 7.8 | 18.2 | 0.00 | 0.00 | 0.00 | 27 | 1013.0 |
| 20260508024540 | 89 | 279 | 7.8 | 20.0 | 0.00 | 0.00 | 0.00 | 26 | 1012.8 |
| 20260508024038 | 89 | 305 | 12.2 | 22.6 | 0.00 | 0.00 | 0.00 | 29 | 1012.8 |
| 20260508023534 | 89 | 290 | 10.4 | 19.1 | 0.00 | 0.00 | 0.00 | 28 | 1012.8 |
| 20260508023032 | 89 | 314 | 14.8 | 20.0 | 0.00 | 0.00 | 0.00 | 28 | 1012.9 |
| 20260508022527 | 89 | 266 | 6.1 | 15.6 | 0.00 | 0.00 | 0.00 | 26 | 1012.8 |
| 20260508022025 | 89 | 309 | 13.0 | 20.0 | 0.00 | 0.00 | 0.00 | 28 | 1012.5 |
| 20260508021520 | 89 | 296 | 13.0 | 21.7 | 0.00 | 0.00 | 0.00 | 29 | 1012.6 |
| 20260508021016 | 89 | 310 | 14.8 | 21.7 | 0.00 | 0.00 | 0.00 | 27 | 1012.6 |
| 20260508020514 | 90 | 284 | 8.7 | 20.0 | 0.00 | 0.00 | 0.00 | 27 | 1012.8 |
| 20260508020012 | 90 | 295 | 7.0 | 20.0 | 0.00 | 0.00 | 0.00 | 27 | 1012.5 |
| 20260508015509 | 89 | 293 | 10.4 | 16.5 | 0.00 | 0.00 | 0.00 | 28 | 1012.6 |
| 20260508015006 | 90 | 305 | 16.5 | 22.6 | 0.00 | 0.00 | 0.00 | 29 | 1012.7 |
| 20260508014502 | 90 | 285 | 12.2 | 14.8 | 0.00 | 0.00 | 0.00 | 29 | 1012.6 |
| 20260508013958 | 90 | 309 | 9.6 | 14.8 | 0.00 | 0.00 | 0.00 | 27 | 1012.5 |
| 20260508013454 | 90 | 282 | 5.2 | 20.0 | 0.00 | 0.00 | 0.00 | 27 | 1012.7 |
| 20260508012952 | 91 | 299 | 8.7 | 15.6 | 0.00 | 0.00 | 0.00 | 27 | 1012.8 |
| 20260508012449 | 91 | 293 | 5.2 | 15.6 | 0.00 | 0.00 | 0.00 | 24 | 1012.7 |
| 20260508011946 | 92 | 264 | 8.7 | 17.4 | 0.00 | 0.00 | 0.00 | 24 | 1012.7 |
| 20260508011444 | 93 | 257 | 12.2 | 16.5 | 0.00 | 0.00 | 0.00 | 23 | 1012.6 |
| 20260508010941 | 93 | 263 | 8.7 | 16.5 | 0.00 | 0.00 | 0.00 | 23 | 1012.9 |
| 20260508010438 | 93 | 256 | 10.4 | 16.5 | 0.00 | 0.00 | 0.00 | 23 | 1012.8 |
| 20260508005935 | 94 | 262 | 9.6 | 16.5 | 0.00 | 0.00 | 0.00 | 22 | 1012.9 |
| 20260508005432 | 94 | 259 | 13.0 | 17.4 | 0.00 | 0.00 | 0.00 | 22 | 1012.8 |
| 20260508004928 | 94 | 255 | 10.4 | 20.0 | 0.00 | 0.00 | 0.00 | 21 | 1012.8 |
| 20260508004425 | 95 | 258 | 10.4 | 14.8 | 0.00 | 0.00 | 0.00 | 21 | 1012.8 |
| 20260508003921 | 95 | 245 | 13.9 | 17.4 | 0.00 | 0.00 | 0.00 | 20 | 1012.9 |
| 20260508003418 | 95 | 278 | 3.5 | 17.4 | 0.00 | 0.00 | 0.00 | 19 | 1013.0 |
| 20260508002916 | 96 | 254 | 7.0 | 14.8 | 0.00 | 0.00 | 0.00 | 20 | 1013.0 |
| 20260508002412 | 96 | 258 | 11.3 | 17.4 | 0.00 | 0.00 | 0.00 | 20 | 1012.9 |
| 20260508001908 | 97 | 257 | 11.3 | 14.8 | 0.00 | 0.00 | 0.00 | 19 | 1012.8 |
| 20260508001404 | 96 | 247 | 9.6 | 13.0 | 0.00 | 0.00 | 0.00 | 18 | 1012.8 |
| 20260508000901 | 97 | 241 | 3.5 | 13.0 | 0.00 | 0.00 | 0.00 | 19 | 1013.0 |
| 20260508000357 | 97 | 269 | 8.7 | 14.8 | 0.00 | 0.00 | 0.00 | 18 | 1013.0 |
| 20260507235854 | 97 | 340 | 7.0 | 18.2 | 0.00 | 0.00 | 0.00 | 18 | 1012.9 |
| 20260507235352 | 98 | 293 | 5.2 | 12.2 | 0.00 | 0.00 | 0.00 | 19 | 1012.9 |
| 20260507234849 | 98 | 257 | 7.0 | 13.9 | 0.00 | 0.00 | 0.00 | 18 | 1012.8 |
| 20260507234345 | 97 | 238 | 14.8 | 16.5 | 0.00 | 0.00 | 0.00 | 17 | 1012.8 |
| 20260507233841 | 97 | 310 | 8.7 | 13.0 | 0.00 | 0.00 | 0.00 | 18 | 1013.1 |
| 20260507233339 | 97 | 236 | 7.8 | 16.5 | 0.00 | 0.00 | 0.00 | 19 | 1012.8 |
| 20260507232837 | 98 | 229 | 7.0 | 13.9 | 0.00 | 0.00 | 0.00 | 18 | 1012.7 |
| 20260507232333 | 98 | 247 | 9.6 | 17.4 | 0.00 | 0.00 | 0.00 | 18 | 1012.9 |
| 20260507231831 | 98 | 224 | 4.3 | 13.9 | 0.00 | 0.00 | 0.00 | 19 | 1013.0 |
| 20260507231327 | 99 | 253 | 7.0 | 8.7 | 0.00 | 0.00 | 0.00 | 17 | 1013.1 |
| 20260507230823 | 98 | 248 | 4.3 | 13.9 | 0.00 | 0.00 | 0.00 | 17 | 1013.0 |
| 20260507230321 | 98 | 243 | 11.3 | 14.8 | 0.00 | 0.00 | 0.00 | 17 | 1012.9 |
| 20260507225821 | 99 | 298 | 2.6 | 7.8 | 0.00 | 0.00 | 0.00 | 17 | 1013.1 |
| 20260507225317 | 100 | 314 | 3.5 | 5.2 | 0.00 | 0.00 | 0.00 | 16 | 1013.0 |
| 20260507224813 | 99 | 264 | 2.6 | 5.2 | 0.00 | 0.00 | 0.00 | 15 | 1013.1 |
| 20260507224310 | 98 | 101 | 2.6 | 4.3 | 0.00 | 0.00 | 0.00 | 15 | 1013.4 |
| 20260507223806 | 99 | 28 | 3.5 | 5.2 | 0.00 | 0.00 | 0.00 | 15 | 1013.2 |
| 20260507223302 | 101 | 62 | 4.3 | 5.2 | 0.00 | 0.00 | 0.00 | 15 | 1013.3 |
| 20260507222800 | 100 | 94 | 1.7 | 4.3 | 0.00 | 0.00 | 0.00 | 14 | 1013.3 |
| 20260507222256 | 100 | 227 | 0.0 | 8.7 | 0.00 | 0.00 | 0.00 | 13 | 1013.4 |
| 20260507221753 | 101 | 111 | 2.6 | 4.3 | 0.00 | 0.00 | 0.00 | 13 | 1013.4 |
| 20260507221249 | 99 | 71 | 4.3 | 5.2 | 0.00 | 0.00 | 0.00 | 13 | 1013.7 |
| 20260507220746 | 101 | 231 | 5.2 | 7.8 | 0.00 | 0.00 | 0.00 | 13 | 1013.5 |
| 20260507220244 | 101 | 227 | 3.5 | 5.2 | 0.00 | 0.00 | 0.00 | 13 | 1013.7 |
| 20260507215740 | 101 | 126 | 1.7 | 4.3 | 0.00 | 0.00 | 0.00 | 12 | 1014.1 |
| 20260507215232 | 102 | 202 | 1.7 | 2.6 | 0.00 | 0.00 | 0.00 | 12 | 1014.0 |
| 20260507214729 | 100 | 192 | 3.5 | 10.4 | 0.00 | 0.00 | 0.00 | 13 | 1014.1 |
| 20260507214226 | 101 | 93 | 4.3 | 5.2 | 0.00 | 0.00 | 0.00 | 13 | 1014.1 |
| 20260507213721 | 100 | 242 | 4.3 | 5.2 | 0.00 | 0.00 | 0.00 | 13 | 1014.3 |
| 20260507213219 | 98 | 7 | 1.7 | 4.3 | 0.00 | 0.00 | 0.00 | 14 | 1014.3 |
| 20260507212715 | 99 | 208 | 1.7 | 5.2 | 0.00 | 0.00 | 0.00 | 13 | 1014.5 |
| 20260507212212 | 97 | 330 | 1.7 | 4.3 | 0.00 | 0.00 | 0.00 | 13 | 1014.5 |
| 20260507211708 | 99 | 129 | 2.6 | 4.3 | 0.00 | 0.00 | 0.00 | 13 | 1014.4 |
| 20260507211204 | 100 | 136 | 2.6 | 4.3 | 0.00 | 0.00 | 0.00 | 13 | 1014.6 |
| 20260507210702 | 101 | 166 | 1.7 | 4.3 | 0.00 | 0.00 | 0.00 | 13 | 1014.8 |
| 20260507210158 | 99 | 167 | 1.7 | 8.7 | 0.00 | 0.00 | 0.00 | 13 | 1014.7 |
| 20260507205654 | 98 | 260 | 0.9 | 5.2 | 0.00 | 0.00 | 0.00 | 14 | 1014.6 |
| 20260507205151 | 99 | 248 | 1.7 | 3.5 | 0.00 | 0.00 | 0.00 | 14 | 1014.8 |
| 20260507204647 | 98 | 171 | 0.9 | 4.3 | 0.00 | 0.00 | 0.00 | 14 | 1015.0 |
| 20260507204145 | 98 | 311 | 0.9 | 4.3 | 0.00 | 0.00 | 0.00 | 14 | 1015.0 |
| 20260507203643 | 99 | 41 | 5.2 | 7.8 | 0.00 | 0.00 | 0.00 | 14 | 1015.0 |
| 20260507203140 | 98 | 68 | 0.0 | 9.6 | 0.00 | 0.00 | 0.00 | 14 | 1015.1 |
| 20260507202636 | 98 | 151 | 1.7 | 3.5 | 0.00 | 0.00 | 0.00 | 14 | 1015.2 |
| 20260507202132 | 98 | 156 | 0.9 | 3.5 | 0.00 | 0.00 | 0.00 | 14 | 1015.2 |
| 20260507201627 | 96 | 163 | 3.5 | 6.1 | 0.00 | 0.00 | 0.00 | 15 | 1015.2 |
| 20260507201125 | 98 | 118 | 2.6 | 7.0 | 0.00 | 0.00 | 0.00 | 14 | 1015.1 |
| 20260507200620 | 98 | 69 | 2.6 | 3.5 | 0.00 | 0.00 | 0.00 | 15 | 1015.3 |
| 20260507200117 | 96 | 18 | 2.6 | 3.5 | 0.00 | 0.00 | 0.00 | 15 | 1015.4 |
| 20260507195614 | 98 | 61 | 2.6 | 6.1 | 0.00 | 0.00 | 0.00 | 15 | 1015.6 |
| 20260507195111 | 97 | 75 | 4.3 | 7.8 | 0.00 | 0.00 | 0.00 | 15 | 1015.6 |
| 20260507194608 | 97 | 102 | 2.6 | 5.2 | 0.00 | 0.00 | 0.00 | 15 | 1015.7 |
| 20260507194103 | 97 | 230 | 0.9 | 2.6 | 0.00 | 0.00 | 0.00 | 14 | 1015.6 |
| 20260507193601 | 95 | 206 | 0.9 | 4.3 | 0.00 | 0.00 | 0.00 | 15 | 1015.9 |
| 20260507193057 | 96 | 83 | 3.5 | 3.5 | 0.00 | 0.00 | 0.00 | 15 | 1016.1 |
| 20260507192553 | 97 | 109 | 5.2 | 7.8 | 0.00 | 0.00 | 0.00 | 15 | 1016.1 |
| 20260507192051 | 96 | 208 | 1.7 | 4.3 | 0.00 | 0.00 | 0.00 | 15 | 1016.1 |
| 20260507191546 | 97 | 118 | 2.6 | 7.0 | 0.00 | 0.00 | 0.00 | 15 | 1016.1 |
| 20260507191043 | 98 | 93 | 1.7 | 3.5 | 0.00 | 0.00 | 0.00 | 15 | 1016.2 |
| 20260507190540 | 95 | 209 | 0.0 | 4.3 | 0.00 | 0.00 | 0.00 | 16 | 1016.3 |
| 20260507190039 | 95 | 314 | 2.6 | 2.6 | 0.00 | 0.00 | 0.00 | 15 | 1016.5 |
| 20260507185537 | 96 | 132 | 2.6 | 2.6 | 0.00 | 0.00 | 0.00 | 15 | 1016.6 |
| 20260507185033 | 95 | 102 | 4.3 | 5.2 | 0.00 | 0.00 | 0.00 | 16 | 1016.3 |
| 20260507184532 | 94 | 103 | 4.3 | 6.1 | 0.00 | 0.00 | 0.00 | 17 | 1016.7 |
| 20260507184029 | 96 | 75 | 3.5 | 6.1 | 0.00 | 0.00 | 0.00 | 16 | 1016.7 |
| 20260507183525 | 95 | 101 | 2.6 | 4.3 | 0.00 | 0.00 | 0.00 | 17 | 1016.8 |
| 20260507183022 | 94 | 111 | 1.7 | 4.3 | 0.00 | 0.00 | 0.00 | 18 | 1016.7 |
| 20260507182518 | 93 | 152 | 1.7 | 6.1 | 0.00 | 0.00 | 0.00 | 18 | 1016.9 |
| 20260507182014 | 95 | 97 | 2.6 | 3.5 | 0.00 | 0.00 | 0.00 | 18 | 1016.9 |
| 20260507181512 | 92 | 56 | 0.9 | 3.5 | 0.00 | 0.00 | 0.00 | 20 | 1017.1 |
| 20260507181008 | 93 | 164 | 0.9 | 2.6 | 0.00 | 0.00 | 0.00 | 20 | 1017.0 |
| 20260507180504 | 93 | 95 | 2.6 | 3.5 | 0.00 | 0.00 | 0.00 | 19 | 1017.0 |
| 20260507180000 | 92 | 100 | 6.1 | 8.7 | 0.00 | 0.00 | 0.00 | 20 | 1017.2 |
| 20260507175457 | 93 | 109 | 4.3 | 4.3 | 0.00 | 0.00 | 0.00 | 20 | 1017.2 |
| 20260507174955 | 91 | 187 | 1.7 | 4.3 | 0.00 | 0.00 | 0.00 | 20 | 1017.0 |
| 20260507174452 | 92 | 116 | 1.7 | 2.6 | 0.00 | 0.00 | 0.00 | 20 | 1017.2 |
| 20260507173949 | 91 | 134 | 0.9 | 2.6 | 0.00 | 0.00 | 0.00 | 21 | 1017.4 |
| 20260507173446 | 91 | 105 | 1.7 | 1.7 | 0.00 | 0.00 | 0.00 | 21 | 1017.3 |
| 20260507172943 | 91 | 107 | 2.6 | 4.3 | 0.00 | 0.00 | 0.00 | 21 | 1017.2 |
| 20260507172439 | 91 | 200 | 1.7 | 2.6 | 0.00 | 0.00 | 0.00 | 21 | 1017.0 |
| 20260507171936 | 91 | 88 | 1.7 | 2.6 | 0.00 | 0.00 | 0.00 | 21 | 1017.3 |
| 20260507171432 | 91 | 354 | 0.9 | 2.6 | 0.00 | 0.00 | 0.00 | 22 | 1017.3 |
| 20260507170930 | 89 | 74 | 1.7 | 1.7 | 0.00 | 0.00 | 0.00 | 21 | 1017.3 |
| 20260507170426 | 89 | 84 | 0.9 | 2.6 | 0.00 | 0.00 | 0.00 | 21 | 1017.4 |
| 20260507165922 | 89 | 259 | 0.9 | 2.6 | 0.00 | 0.00 | 0.00 | 22 | 1017.4 |
| 20260507165418 | 88 | 48 | 0.9 | 3.5 | 0.00 | 0.00 | 0.00 | 23 | 1017.6 |
| 20260507164914 | 89 | 102 | 2.6 | 2.6 | 0.00 | 0.00 | 0.00 | 23 | 1017.5 |
| 20260507164412 | 87 | 251 | 0.9 | 2.6 | 0.00 | 0.00 | 0.00 | 23 | 1017.5 |
| 20260507163909 | 88 | 108 | 1.7 | 2.6 | 0.00 | 0.00 | 0.00 | 22 | 1017.4 |
| 20260507163407 | 87 | 55 | 1.7 | 2.6 | 0.00 | 0.00 | 0.00 | 24 | 1017.5 |
| 20260507162903 | 88 | 76 | 0.9 | 2.6 | 0.00 | 0.00 | 0.00 | 25 | 1017.4 |
| 20260507162358 | 86 | 164 | 0.0 | 1.7 | 0.00 | 0.00 | 0.00 | 25 | 1017.7 |
| 20260507161856 | 86 | 77 | 1.7 | 2.6 | 0.00 | 0.00 | 0.00 | 26 | 1017.8 |
| 20260507161352 | 87 | 44 | 0.0 | 1.7 | 0.00 | 0.00 | 0.00 | 27 | 1017.7 |
| 20260507160849 | 86 | 37 | 0.9 | 2.6 | 0.00 | 0.00 | 0.00 | 27 | 1017.4 |
| 20260507160344 | 84 | 63 | 0.0 | 3.5 | 0.00 | 0.00 | 0.00 | 28 | 1017.6 |
| 20260507155841 | 83 | 67 | 1.7 | 3.5 | 0.00 | 0.00 | 0.00 | 30 | 1017.6 |
| 20260507155336 | 84 | 93 | 1.7 | 2.6 | 0.00 | 0.00 | 0.00 | 30 | 1017.5 |
| 20260507154833 | 84 | 68 | 1.7 | 2.6 | 0.00 | 0.00 | 0.00 | 30 | 1017.7 |
| 20260507154331 | 83 | 61 | 1.7 | 2.6 | 0.00 | 0.00 | 0.00 | 30 | 1017.7 |
| 20260507153828 | 83 | 59 | 1.7 | 3.5 | 0.00 | 0.00 | 0.00 | 30 | 1017.6 |
| 20260507153324 | 82 | 86 | 2.6 | 3.5 | 0.00 | 0.00 | 0.00 | 30 | 1017.7 |
| 20260507152820 | 82 | 74 | 1.7 | 3.5 | 0.00 | 0.00 | 0.00 | 31 | 1017.6 |
| 20260507152317 | 82 | 101 | 2.6 | 3.5 | 0.00 | 0.00 | 0.00 | 30 | 1017.7 |
| 20260507151813 | 82 | 85 | 1.7 | 3.5 | 0.00 | 0.00 | 0.00 | 31 | 1017.7 |
| 20260507151309 | 81 | 101 | 1.7 | 2.6 | 0.00 | 0.00 | 0.00 | 31 | 1017.7 |
| 20260507150806 | 81 | 46 | 1.7 | 1.7 | 0.00 | 0.00 | 0.00 | 31 | 1018.0 |
| 20260507150303 | 81 | 87 | 1.7 | 2.6 | 0.00 | 0.00 | 0.00 | 31 | 1017.6 |
| 20260507145759 | 82 | 80 | 1.7 | 2.6 | 0.00 | 0.00 | 0.00 | 31 | 1017.6 |
| 20260507145255 | 80 | 66 | 1.7 | 2.6 | 0.00 | 0.00 | 0.00 | 32 | 1017.5 |
| 20260507144753 | 80 | 82 | 1.7 | 2.6 | 0.00 | 0.00 | 0.00 | 32 | 1017.6 |
| 20260507144250 | 80 | 61 | 1.7 | 2.6 | 0.00 | 0.00 | 0.00 | 32 | 1017.7 |
| 20260507143746 | 79 | 59 | 0.0 | 1.7 | 0.00 | 0.00 | 0.00 | 32 | 1017.6 |
| 20260507143244 | 79 | 73 | 0.0 | 1.7 | 0.00 | 0.00 | 0.00 | 32 | 1017.6 |
| 20260507142739 | 78 | 53 | 0.0 | 0.9 | 0.00 | 0.00 | 0.00 | 34 | 1017.5 |
| 20260507142236 | 76 | 304 | 0.0 | 0.0 | 0.00 | 0.00 | 0.00 | 36 | 1017.5 |
| 20260507141733 | 76 | 132 | 0.0 | 0.0 | 0.00 | 0.00 | 0.00 | 34 | 1017.6 |
| 20260507141230 | 76 | 286 | 0.0 | 0.9 | 0.00 | 0.00 | 0.00 | 34 | 1017.4 |
| 20260507140726 | 77 | 75 | 0.0 | 1.7 | 0.00 | 0.00 | 0.00 | 33 | 1017.4 |
| 20260507140224 | 73 | 326 | 0.0 | 0.0 | 0.00 | 0.00 | 0.00 | 36 | 1017.4 |
| 20260507135720 | 72 | 279 | 0.0 | 0.9 | 0.00 | 0.00 | 0.00 | 36 | 1017.2 |
| 20260507135218 | 71 | 246 | 0.0 | 1.7 | 0.00 | 0.00 | 0.00 | 36 | 1017.2 |
| 20260507134714 | 69 | 252 | 0.0 | 1.7 | 0.00 | 0.00 | 0.00 | 37 | 1017.2 |
| 20260507134210 | 68 | 258 | 0.0 | 1.7 | 0.00 | 0.00 | 0.00 | 39 | 1017.3 |
| 20260507133706 | 67 | 277 | 0.0 | 1.7 | 0.00 | 0.00 | 0.00 | 40 | 1017.3 |
| 20260507133203 | 66 | 279 | 0.0 | 1.7 | 0.00 | 0.00 | 0.00 | 41 | 1017.4 |
| 20260507132701 | 65 | 113 | 0.0 | 1.7 | 0.00 | 0.00 | 0.00 | 43 | 1017.3 |
| 20260507132157 | 64 | 229 | 0.0 | 0.9 | 0.00 | 0.00 | 0.00 | 44 | 1017.2 |
| 20260507131654 | 63 | 179 | 0.9 | 1.7 | 0.00 | 0.00 | 0.00 | 47 | 1017.1 |
| 20260507131151 | 62 | 234 | 1.7 | 1.7 | 0.00 | 0.00 | 0.00 | 45 | 1017.1 |
| 20260507130648 | 63 | 228 | 0.9 | 2.6 | 0.00 | 0.00 | 0.00 | 44 | 1017.2 |
| 20260507130146 | 63 | 141 | 0.0 | 1.7 | 0.00 | 0.00 | 0.00 | 48 | 1017.0 |